Time;durP1;ratioP1;P1;durP2;ratioP2;P2;SDS_P1;SDS_P2;PMS_P1;PMS_P2;Temp;Humidity;BMP_temperature;BMP_pressure;BME280_temperature;BME280_humidity;BME280_pressure;Samples;Min_cycle;Max_cycle;Signal;HPM_P1;HPM_P2
2023/04/28 00:01:40;;;;;;;7.70;2.70;;;;;;;10.11;53.71;100396.56;111608;1230;65245;-48
2023/04/28 00:04:07;;;;;;;5.70;2.10;;;;;;;10.11;53.31;100395.89;110904;1234;62259;-47
2023/04/28 00:06:36;;;;;;;4.90;2.10;;;;;;;10.10;53.38;100400.86;109469;1232;65165;-48
2023/04/28 00:09:03;;;;;;;5.80;1.90;;;;;;;10.10;53.43;100400.55;109442;1231;59688;-47
2023/04/28 00:11:30;;;;;;;5.40;1.90;;;;;;;10.10;53.52;100401.05;108675;1230;59778;-48
2023/04/28 00:13:57;;;;;;;6.90;2.20;;;;;;;10.08;53.08;100406.13;109683;1234;65203;-47
2023/04/28 00:16:24;;;;;;;4.30;2.00;;;;;;;10.05;52.83;100405.81;110595;1230;62625;-48
2023/04/28 00:18:50;;;;;;;6.50;2.40;;;;;;;10.04;52.94;100409.42;110700;1233;72539;-47
2023/04/28 00:21:17;;;;;;;4.90;1.90;;;;;;;10.01;52.99;100407.73;109923;1232;59601;-47
2023/04/28 00:23:44;;;;;;;5.20;1.90;;;;;;;10.01;52.96;100414.58;108587;1231;59611;-48
2023/04/28 00:26:11;;;;;;;5.70;2.20;;;;;;;9.99;52.76;100419.61;108532;1234;65522;-48
2023/04/28 00:28:38;;;;;;;5.00;2.10;;;;;;;9.97;52.64;100423.77;108653;1234;62782;-48
2023/04/28 00:31:12;;;;;;;5.20;2.10;;;;;;;9.96;52.64;100430.38;108596;1230;64802;-49
2023/04/28 00:33:39;;;;;;;7.80;2.00;;;;;;;9.94;52.56;100433.29;108528;1234;59707;-48
2023/04/28 00:36:07;;;;;;;6.30;2.00;;;;;;;9.93;52.59;100439.88;109351;1234;59604;-49
2023/04/28 00:38:33;;;;;;;10.30;3.00;;;;;;;9.94;52.66;100443.88;108851;1233;65059;-48
2023/04/28 00:41:00;;;;;;;5.80;2.10;;;;;;;9.94;52.56;100445.23;109507;1230;62439;-48
2023/04/28 00:43:27;;;;;;;6.80;2.10;;;;;;;9.93;52.49;100451.23;108530;1234;64787;-47
2023/04/28 00:45:54;;;;;;;5.60;2.30;;;;;;;9.94;52.58;100452.77;109095;1231;59785;-47
2023/04/28 00:48:23;;;;;;;8.20;2.40;;;;;;;9.94;52.44;100452.06;110695;1230;59669;-47
2023/04/28 00:50:50;;;;;;;8.70;2.80;;;;;;;9.93;52.34;100457.89;108376;1236;65162;-48
2023/04/28 00:53:16;;;;;;;6.00;2.20;;;;;;;9.93;52.40;100458.80;108851;1236;62388;-47
2023/04/28 00:55:43;;;;;;;5.70;2.10;;;;;;;9.93;52.44;100457.44;108435;1234;65020;-49
2023/04/28 00:58:11;;;;;;;5.10;2.10;;;;;;;9.92;52.29;100455.36;109146;1232;59670;-48
2023/04/28 01:00:38;;;;;;;8.00;2.90;;;;;;;9.92;52.46;100454.84;108458;1232;59620;-48
2023/04/28 01:03:05;;;;;;;5.20;2.30;;;;;;;9.92;52.66;100458.85;109547;1233;65124;-48
2023/04/28 01:05:33;;;;;;;11.50;2.90;;;;;;;9.94;52.80;100459.43;108641;1232;62534;-48
2023/04/28 01:08:00;;;;;;;8.00;2.30;;;;;;;9.94;52.49;100459.95;108578;1232;64638;-47
2023/04/28 01:10:27;;;;;;;7.80;2.50;;;;;;;9.93;52.42;100458.64;108778;1230;59738;-48
2023/04/28 01:12:55;;;;;;;4.50;1.90;;;;;;;9.89;52.17;100457.89;108804;1231;59482;-48
2023/04/28 01:15:22;;;;;;;5.10;2.00;;;;;;;9.87;52.14;100458.72;108903;1234;65259;-48
2023/04/28 01:17:52;;;;;;;7.20;2.50;;;;;;;9.86;52.38;100454.56;111252;1231;61506;-51
2023/04/28 01:20:19;;;;;;;8.00;2.50;;;;;;;9.86;52.44;100455.82;108499;1238;65052;-47
2023/04/28 01:22:46;;;;;;;7.40;2.30;;;;;;;9.86;52.46;100459.30;109844;1234;59623;-48
2023/04/28 01:25:13;;;;;;;5.80;2.10;;;;;;;9.89;52.64;100461.05;108519;1231;59635;-47
2023/04/28 01:27:40;;;;;;;8.90;2.10;;;;;;;9.91;52.57;100464.59;108629;1234;64972;-48
2023/04/28 01:30:08;;;;;;;8.80;2.90;;;;;;;9.91;52.59;100467.88;108750;1232;62303;-47
2023/04/28 01:32:35;;;;;;;7.00;2.70;;;;;;;9.91;52.34;100471.23;108361;1232;64859;-48
2023/04/28 01:35:02;;;;;;;6.10;2.10;;;;;;;9.89;52.30;100470.30;108586;1232;60698;-48
2023/04/28 01:37:29;;;;;;;5.90;2.20;;;;;;;9.84;52.33;100471.58;108562;1234;60644;-49
2023/04/28 01:39:56;;;;;;;6.20;2.40;;;;;;;9.81;52.48;100478.62;108546;1242;66254;-48
2023/04/28 01:42:24;;;;;;;6.50;2.60;;;;;;;9.80;52.58;100476.94;108531;1234;61717;-48
2023/04/28 01:44:52;;;;;;;9.60;2.40;;;;;;;9.79;52.64;100478.39;112199;1230;65094;-47
2023/04/28 01:47:19;;;;;;;6.50;2.20;;;;;;;9.79;52.55;100476.50;112252;1231;58276;-47
2023/04/28 01:49:47;;;;;;;4.90;2.30;;;;;;;9.78;52.48;100478.65;112237;1230;58032;-47
2023/04/28 01:52:13;;;;;;;7.90;2.40;;;;;;;9.78;52.48;100475.19;112296;1231;65865;-47
2023/04/28 01:54:40;;;;;;;5.10;2.40;;;;;;;9.79;52.54;100474.75;112271;1232;61248;-47
2023/04/28 01:57:07;;;;;;;6.10;2.20;;;;;;;9.79;52.40;100472.09;108016;1234;63740;-46
2023/04/28 01:59:35;;;;;;;6.20;2.50;;;;;;;9.80;52.41;100477.29;112269;1232;58552;-47
2023/04/28 02:02:02;;;;;;;4.80;2.20;;;;;;;9.81;52.43;100477.04;112106;1230;58589;-48
2023/04/28 02:04:29;;;;;;;6.20;2.30;;;;;;;9.83;52.41;100473.75;112120;1236;66278;-49
2023/04/28 02:06:55;;;;;;;5.90;2.20;;;;;;;9.85;52.17;100469.73;112271;1231;62316;-48
2023/04/28 02:09:22;;;;;;;6.80;2.30;;;;;;;9.86;51.82;100468.77;109342;1235;65019;-48
2023/04/28 02:11:50;;;;;;;6.30;2.30;;;;;;;9.86;51.80;100469.14;110130;1232;59373;-48
2023/04/28 02:14:16;;;;;;;4.90;2.30;;;;;;;9.84;51.76;100468.37;108088;1230;60455;-48
2023/04/28 02:16:44;;;;;;;6.70;2.40;;;;;;;9.84;51.86;100466.64;108050;1234;66103;-47
2023/04/28 02:19:11;;;;;;;5.00;1.90;;;;;;;9.85;51.85;100466.74;109917;1232;71058;-47
2023/04/28 02:21:38;;;;;;;7.10;2.10;;;;;;;9.81;51.89;100465.79;109257;1236;64531;-47
2023/04/28 02:24:07;;;;;;;6.50;2.10;;;;;;;9.74;51.99;100470.52;108543;1233;60470;-47
2023/04/28 02:26:33;;;;;;;6.20;2.20;;;;;;;9.69;52.02;100472.17;110414;1232;60462;-48
2023/04/28 02:29:03;;;;;;;5.60;2.40;;;;;;;9.67;52.02;100474.23;111198;1232;64703;-47
2023/04/28 02:31:32;;;;;;;5.90;2.40;;;;;;;9.65;51.91;100476.27;108489;1232;62517;-47
2023/04/28 02:33:58;;;;;;;9.70;2.30;;;;;;;9.63;51.90;100472.27;108806;1232;64567;-48
2023/04/28 02:36:26;;;;;;;5.60;2.30;;;;;;;9.60;51.97;100476.53;108682;1230;60531;-47
2023/04/28 02:38:53;;;;;;;4.40;2.00;;;;;;;9.57;52.04;100482.67;108514;1232;60378;-47
2023/04/28 02:41:20;;;;;;;5.80;2.10;;;;;;;9.57;51.89;100481.49;108565;1234;66321;-47
2023/04/28 02:43:47;;;;;;;10.60;2.20;;;;;;;9.56;51.75;100481.70;108462;1232;62802;-47
2023/04/28 02:46:14;;;;;;;5.10;1.80;;;;;;;9.50;51.94;100480.77;108480;1237;64640;-47
2023/04/28 02:48:41;;;;;;;5.60;2.00;;;;;;;9.44;52.04;100485.73;109216;1234;60504;-47
2023/04/28 02:51:09;;;;;;;6.70;2.40;;;;;;;9.42;51.93;100488.36;108335;1237;60528;-53
2023/04/28 02:53:36;;;;;;;6.30;2.10;;;;;;;9.39;51.96;100492.94;108547;1234;66404;-47
2023/04/28 02:56:04;;;;;;;7.00;2.50;;;;;;;9.36;52.13;100497.01;108486;1230;62759;-47
2023/04/28 02:58:31;;;;;;;5.70;2.10;;;;;;;9.35;52.21;100500.92;110407;1232;63914;-45
2023/04/28 03:00:58;;;;;;;6.50;2.60;;;;;;;9.35;52.16;100502.35;108393;1231;60430;-46
2023/04/28 03:03:25;;;;;;;7.70;2.30;;;;;;;9.34;51.99;100504.70;109552;1232;60406;-48
2023/04/28 03:05:52;;;;;;;6.60;2.80;;;;;;;9.30;51.98;100509.30;108915;1234;66584;-47
2023/04/28 03:08:19;;;;;;;8.40;2.60;;;;;;;9.29;52.00;100511.36;110722;1234;62247;-47
2023/04/28 03:10:47;;;;;;;6.40;2.60;;;;;;;9.28;52.03;100512.30;110639;1231;64948;-48
2023/04/28 03:13:13;;;;;;;6.20;2.20;;;;;;;9.30;52.09;100517.05;108342;1232;61581;-48
2023/04/28 03:15:41;;;;;;;6.10;2.40;;;;;;;9.31;51.97;100523.64;109243;1233;60194;-48
2023/04/28 03:18:08;;;;;;;9.40;2.60;;;;;;;9.32;51.98;100525.86;108644;1232;66501;-47
2023/04/28 03:20:36;;;;;;;5.30;2.30;;;;;;;9.30;51.87;100529.63;108402;1235;62650;-47
2023/04/28 03:23:03;;;;;;;6.30;2.80;;;;;;;9.29;51.83;100533.54;109478;1234;64943;-48
2023/04/28 03:25:30;;;;;;;6.40;2.40;;;;;;;9.27;51.76;100534.92;108561;1234;60514;-47
2023/04/28 03:27:57;;;;;;;6.90;2.60;;;;;;;9.25;51.78;100536.34;108457;1232;60461;-47
2023/04/28 03:30:24;;;;;;;6.30;2.20;;;;;;;9.25;51.85;100540.70;109009;1234;74655;-48
2023/04/28 03:32:51;;;;;;;8.40;2.70;;;;;;;9.24;51.82;100538.34;109002;1232;62289;-47
2023/04/28 03:35:18;;;;;;;6.20;2.40;;;;;;;9.22;51.75;100538.96;109943;1232;64987;-47
2023/04/28 03:37:45;;;;;;;6.60;3.00;;;;;;;9.22;51.87;100538.43;109263;1234;60586;-48
2023/04/28 03:40:12;;;;;;;6.10;2.50;;;;;;;9.21;51.84;100539.61;109173;1231;60433;-47
2023/04/28 03:43:14;;;;;;;7.00;2.60;;;;;;;9.20;51.85;100543.19;108413;1240;65563;-48
2023/04/28 03:46:04;;;;;;;5.10;1.10;;;;;;;9.19;51.82;100543.95;109468;1234;61489;-47
2023/04/28 03:48:32;;;;;;;6.90;2.70;;;;;;;9.16;51.96;100546.92;108473;1230;73335;-47
2023/04/28 03:50:59;;;;;;;5.70;2.40;;;;;;;9.12;51.96;100549.83;108363;1232;60423;-48
2023/04/28 03:53:26;;;;;;;5.70;2.30;;;;;;;9.11;51.98;100551.98;108478;1231;60433;-47
2023/04/28 03:55:52;;;;;;;9.00;2.60;;;;;;;9.14;52.00;100553.42;108505;1234;65425;-49
2023/04/28 03:58:19;;;;;;;7.10;2.70;;;;;;;9.13;51.94;100553.61;108420;1232;62356;-46
2023/04/28 04:00:46;;;;;;;5.50;2.20;;;;;;;9.11;51.86;100555.15;110371;1235;64920;-47
2023/04/28 04:03:13;;;;;;;6.30;2.00;;;;;;;9.10;51.92;100554.89;110673;1232;59736;-47
2023/04/28 04:05:42;;;;;;;5.00;2.00;;;;;;;9.11;51.95;100559.54;108992;1233;60522;-47
2023/04/28 04:08:09;;;;;;;7.20;2.20;;;;;;;9.11;51.73;100563.52;108230;1235;64763;-48
2023/04/28 04:10:36;;;;;;;6.20;2.40;;;;;;;9.13;51.73;100562.05;108596;1232;62294;-48
2023/04/28 04:13:02;;;;;;;6.10;2.00;;;;;;;9.13;51.82;100562.39;111072;1231;64757;-48
2023/04/28 04:15:29;;;;;;;5.90;2.10;;;;;;;9.15;51.85;100560.51;109510;1234;60430;-48
2023/04/28 04:17:57;;;;;;;6.70;2.00;;;;;;;9.16;51.54;100559.52;108547;1230;60439;-47
2023/04/28 04:20:24;;;;;;;5.00;2.00;;;;;;;9.16;51.53;100559.55;108890;1234;66241;-48
2023/04/28 04:22:51;;;;;;;5.80;2.00;;;;;;;9.15;51.31;100557.87;109805;1230;62374;-47
2023/04/28 04:25:18;;;;;;;6.10;2.00;;;;;;;9.14;51.29;100560.58;109088;1230;65251;-47
2023/04/28 04:27:48;;;;;;;5.50;2.10;;;;;;;9.13;51.37;100563.63;109632;1230;60499;-49
2023/04/28 04:30:15;;;;;;;8.10;2.60;;;;;;;9.10;51.16;100560.83;108539;1232;60589;-46
2023/04/28 04:32:42;;;;;;;9.00;2.40;;;;;;;9.09;51.15;100561.05;108716;1237;66500;-49
2023/04/28 04:35:09;;;;;;;6.00;2.20;;;;;;;9.08;51.16;100560.77;111477;1234;62419;-47
2023/04/28 04:37:36;;;;;;;7.90;2.70;;;;;;;9.07;51.15;100557.56;108929;1234;64821;-54
2023/04/28 04:40:04;;;;;;;7.90;2.50;;;;;;;9.05;50.88;100563.42;108608;1235;61707;-56
2023/04/28 04:42:35;;;;;;;7.20;2.20;;;;;;;9.05;50.77;100568.68;110807;1232;60490;-55
2023/04/28 04:45:11;;;;;;;6.90;2.20;;;;;;;9.04;50.71;100573.66;110150;1233;65933;-56
2023/04/28 04:47:39;;;;;;;6.70;2.40;;;;;;;9.03;50.73;100572.65;108346;1232;63950;-56
2023/04/28 04:50:07;;;;;;;5.80;2.30;;;;;;;9.05;50.80;100576.60;109337;1234;64779;-56
2023/04/28 04:52:33;;;;;;;7.90;2.40;;;;;;;9.05;50.70;100573.43;112050;1231;58468;-56
2023/04/28 04:55:00;;;;;;;5.70;2.70;;;;;;;9.06;50.70;100575.63;112075;1231;58629;-56
2023/04/28 04:57:28;;;;;;;5.40;2.50;;;;;;;9.07;50.50;100573.10;112215;1230;65056;-56
2023/04/28 05:00:05;;;;;;;4.90;2.00;;;;;;;9.09;50.42;100572.44;112229;1236;62312;-56
2023/04/28 05:02:32;;;;;;;5.30;2.50;;;;;;;9.11;50.52;100577.04;112036;1236;64743;-56
2023/04/28 05:05:00;;;;;;;7.10;2.10;;;;;;;9.14;50.52;100581.77;112182;1230;58575;-55
2023/04/28 05:07:46;;;;;;;;;;;;;;;9.15;50.11;100583.27;112270;1231;60414;-55
2023/04/28 05:10:13;;;;;;;7.90;2.70;;;;;;;9.13;49.91;100583.90;112088;1232;65723;-56
2023/04/28 05:12:40;;;;;;;6.20;2.40;;;;;;;9.11;49.95;100577.71;112034;1234;62908;-55
2023/04/28 05:15:07;;;;;;;7.80;2.40;;;;;;;9.11;49.70;100579.27;109328;1231;65024;-55
2023/04/28 05:17:36;;;;;;;5.50;2.30;;;;;;;9.13;49.82;100582.87;110902;1236;59764;-55
2023/04/28 05:20:04;;;;;;;8.00;2.50;;;;;;;9.15;50.04;100581.69;109693;1234;60535;-55
2023/04/28 05:22:31;;;;;;;9.50;2.60;;;;;;;9.18;50.20;100587.75;109328;1230;65148;-54
2023/04/28 05:24:58;;;;;;;7.40;2.50;;;;;;;9.22;50.04;100589.73;108559;1235;62397;-55
2023/04/28 05:27:25;;;;;;;8.80;2.70;;;;;;;9.27;50.18;100590.63;108875;1235;64691;-56
2023/04/28 05:29:53;;;;;;;5.50;1.90;;;;;;;9.32;49.96;100597.58;109580;1232;60342;-55
2023/04/28 05:32:20;;;;;;;6.70;2.30;;;;;;;9.38;50.00;100599.96;108975;1230;60394;-55
2023/04/28 05:34:47;;;;;;;8.40;2.20;;;;;;;9.43;49.62;100596.10;108483;1234;65760;-56
2023/04/28 05:37:14;;;;;;;9.80;2.60;;;;;;;9.50;49.33;100598.82;108448;1232;62406;-55
2023/04/28 05:39:42;;;;;;;6.90;2.30;;;;;;;9.55;49.26;100600.73;109955;1234;64127;-56
2023/04/28 05:42:08;;;;;;;6.20;1.90;;;;;;;9.60;49.26;100602.23;108462;1231;60396;-55
2023/04/28 05:44:35;;;;;;;8.30;2.60;;;;;;;9.64;48.84;100598.98;108624;1235;60494;-57
2023/04/28 05:47:02;;;;;;;6.20;2.30;;;;;;;9.69;48.88;100602.49;108516;1232;73929;-56
2023/04/28 05:49:29;;;;;;;8.20;2.40;;;;;;;9.72;49.06;100604.23;108388;1232;62355;-56
2023/04/28 05:51:56;;;;;;;8.30;2.40;;;;;;;9.77;49.03;100598.98;108358;1232;65093;-56
2023/04/28 05:54:23;;;;;;;6.70;2.00;;;;;;;9.82;48.69;100601.52;108322;1231;60423;-55
2023/04/28 05:56:52;;;;;;;8.10;2.90;;;;;;;9.84;48.01;100595.62;109934;1234;60593;-53
2023/04/28 05:59:19;;;;;;;4.80;1.90;;;;;;;9.86;47.84;100596.66;112273;1234;65011;-56
2023/04/28 06:01:45;;;;;;;6.50;2.40;;;;;;;9.92;48.40;100599.77;109891;1232;62374;-56
2023/04/28 06:04:13;;;;;;;5.60;2.10;;;;;;;10.00;48.03;100596.16;108041;1238;64001;-55
2023/04/28 06:06:40;;;;;;;5.60;2.20;;;;;;;10.05;47.23;100602.30;108262;1232;60419;-55
2023/04/28 06:09:07;;;;;;;6.60;2.10;;;;;;;10.09;46.83;100601.81;110038;1232;60410;-56
2023/04/28 06:11:34;;;;;;;6.10;2.30;;;;;;;10.16;46.90;100606.77;109041;1234;66059;-56
2023/04/28 06:14:02;;;;;;;5.10;2.10;;;;;;;10.13;47.06;100607.02;108786;1231;62749;-55
2023/04/28 06:16:28;;;;;;;7.00;2.10;;;;;;;10.19;47.01;100610.21;108372;1238;65102;-56
2023/04/28 06:18:56;;;;;;;9.70;2.30;;;;;;;10.27;47.49;100616.83;109620;1232;59459;-56
2023/04/28 06:21:24;;;;;;;7.70;2.10;;;;;;;10.33;47.59;100612.86;109110;1232;60439;-55
2023/04/28 06:23:51;;;;;;;7.60;2.30;;;;;;;10.39;47.07;100615.91;111289;1231;65882;-55
2023/04/28 06:26:18;;;;;;;7.00;2.40;;;;;;;10.44;46.60;100610.11;109862;1234;62490;-56
2023/04/28 06:28:45;;;;;;;5.60;2.20;;;;;;;10.51;47.29;100616.26;108333;1236;63780;-56
2023/04/28 06:31:12;;;;;;;6.50;2.10;;;;;;;10.58;47.88;100621.28;110125;1232;59717;-57
2023/04/28 06:33:39;;;;;;;5.20;1.90;;;;;;;10.67;47.32;100623.11;109878;1232;60308;-55
2023/04/28 06:36:06;;;;;;;6.70;2.20;;;;;;;10.70;45.55;100626.55;108586;1234;66042;-56
2023/04/28 06:38:33;;;;;;;8.40;2.30;;;;;;;10.74;45.00;100625.21;108416;1232;62649;-56
2023/04/28 06:41:00;;;;;;;9.20;2.30;;;;;;;10.79;44.27;100627.50;108518;1232;64911;-54
2023/04/28 06:43:27;;;;;;;7.30;2.10;;;;;;;10.87;44.87;100629.14;108429;1234;60366;-55
2023/04/28 06:46:09;;;;;;;5.30;1.90;;;;;;;10.95;45.18;100634.80;109005;1234;60414;-56
2023/04/28 06:48:36;;;;;;;6.40;2.50;;;;;;;11.04;45.12;100629.60;108692;1235;66128;-56
2023/04/28 06:51:03;;;;;;;6.30;2.00;;;;;;;11.12;44.67;100627.18;108550;1232;62249;-54
2023/04/28 06:53:30;;;;;;;5.30;1.70;;;;;;;11.20;44.35;100627.26;109442;1232;65152;-54
2023/04/28 06:55:58;;;;;;;5.90;2.00;;;;;;;11.25;43.59;100623.38;108924;1231;60504;-55
2023/04/28 06:58:27;;;;;;;5.70;1.80;;;;;;;11.33;44.21;100631.48;109688;1234;60507;-56
2023/04/28 07:00:54;;;;;;;4.50;1.50;;;;;;;11.42;43.84;100632.40;108438;1235;66538;-57
2023/04/28 07:03:21;;;;;;;5.20;1.30;;;;;;;11.50;44.57;100629.98;108503;1232;62708;-55
2023/04/28 07:05:48;;;;;;;4.10;1.40;;;;;;;11.58;43.89;100631.33;108473;1232;64982;-54
2023/04/28 07:08:16;;;;;;;4.40;1.60;;;;;;;11.62;42.67;100627.63;108542;1234;60525;-55
2023/04/28 07:10:43;;;;;;;5.20;1.30;;;;;;;11.62;42.30;100630.59;109317;1234;60435;-55
2023/04/28 07:13:10;;;;;;;5.40;1.80;;;;;;;11.62;42.70;100631.86;108565;1234;65996;-56
2023/04/28 07:15:37;;;;;;;6.70;1.80;;;;;;;11.63;43.29;100635.59;108631;1235;62527;-55
2023/04/28 07:18:04;;;;;;;7.10;1.80;;;;;;;11.64;43.08;100643.09;108491;1234;64046;-54
2023/04/28 07:20:31;;;;;;;8.50;2.10;;;;;;;11.65;43.48;100638.95;108525;1234;60569;-54
2023/04/28 07:22:58;;;;;;;7.20;2.10;;;;;;;11.63;43.45;100639.29;108513;1232;60288;-52
2023/04/28 07:25:24;;;;;;;4.80;1.50;;;;;;;11.61;42.96;100645.06;110400;1230;65846;-58
2023/04/28 07:27:53;;;;;;;5.20;2.00;;;;;;;11.62;42.82;100647.10;109055;1234;61281;-54
2023/04/28 07:30:20;;;;;;;3.90;1.30;;;;;;;11.63;42.04;100641.95;109795;1232;64617;-55
2023/04/28 07:32:51;;;;;;;4.60;1.30;;;;;;;11.67;42.28;100652.31;108487;1232;60324;-55
2023/04/28 07:35:18;;;;;;;6.20;1.70;;;;;;;11.72;42.09;100648.11;108574;1235;60910;-55
2023/04/28 07:37:46;;;;;;;3.60;1.10;;;;;;;11.80;41.25;100648.14;108545;1232;65861;-55
2023/04/28 07:40:13;;;;;;;6.00;1.70;;;;;;;11.85;39.32;100647.35;108551;1230;62517;-55
2023/04/28 07:42:40;;;;;;;4.60;1.30;;;;;;;11.91;39.91;100645.13;108509;1234;64606;-54
2023/04/28 07:45:07;;;;;;;5.20;1.20;;;;;;;11.92;38.45;100641.91;110163;1234;60406;-55
2023/04/28 07:47:35;;;;;;;5.20;1.60;;;;;;;11.92;37.80;100649.69;110167;1232;60448;-55
2023/04/28 07:50:04;;;;;;;4.20;1.20;;;;;;;11.91;38.28;100649.91;111109;1230;65940;-54
2023/04/28 07:52:31;;;;;;;4.30;1.40;;;;;;;11.88;38.05;100645.60;109521;1230;62413;-57
2023/04/28 07:54:58;;;;;;;4.40;1.20;;;;;;;11.93;38.56;100656.45;109642;1234;64722;-54
2023/04/28 07:57:25;;;;;;;3.70;1.00;;;;;;;11.97;37.82;100654.84;108845;1234;60525;-55
2023/04/28 07:59:52;;;;;;;6.50;1.60;;;;;;;12.01;36.33;100652.10;108584;1232;60528;-55
2023/04/28 08:02:19;;;;;;;5.80;1.30;;;;;;;12.07;35.81;100654.58;108459;1235;66316;-54
2023/04/28 08:04:46;;;;;;;5.10;1.40;;;;;;;12.17;35.36;100657.45;110672;1232;62504;-54
2023/04/28 08:07:13;;;;;;;3.60;0.90;;;;;;;12.28;35.62;100653.79;109167;1235;73380;-54
2023/04/28 08:09:42;;;;;;;4.10;1.10;;;;;;;12.37;36.71;100657.91;108476;1230;60452;-55
2023/04/28 08:12:09;;;;;;;3.60;1.20;;;;;;;12.46;36.97;100660.23;110208;1232;60442;-55
2023/04/28 08:14:36;;;;;;;4.30;1.50;;;;;;;12.49;36.03;100659.61;108491;1234;65828;-55
2023/04/28 08:17:03;;;;;;;7.20;1.50;;;;;;;12.48;34.94;100655.98;108694;1235;62447;-55
2023/04/28 08:19:30;;;;;;;4.20;1.40;;;;;;;12.44;33.91;100656.98;108438;1232;65194;-57
2023/04/28 08:21:58;;;;;;;3.60;1.20;;;;;;;12.46;34.26;100661.95;108818;1234;60626;-55
2023/04/28 08:24:29;;;;;;;6.30;1.70;;;;;;;12.46;33.95;100659.81;109591;1232;60554;-56
2023/04/28 08:26:55;;;;;;;3.20;1.40;;;;;;;12.49;34.71;100660.51;110004;1234;65857;-55
2023/04/28 08:29:22;;;;;;;7.40;1.30;;;;;;;12.54;34.81;100664.76;108506;1234;62731;-56
2023/04/28 08:31:49;;;;;;;3.60;1.10;;;;;;;12.59;35.04;100659.64;109116;1234;63838;-55
2023/04/28 08:34:16;;;;;;;4.60;1.30;;;;;;;12.58;34.78;100652.81;109211;1235;60416;-55
2023/04/28 08:36:43;;;;;;;4.80;1.70;;;;;;;12.57;34.55;100647.86;108475;1230;60427;-55
2023/04/28 08:39:10;;;;;;;4.70;1.40;;;;;;;12.58;34.51;100648.42;108479;1230;65866;-53
2023/04/28 08:41:40;;;;;;;3.40;1.10;;;;;;;12.57;34.37;100650.44;108541;1232;62506;-55
2023/04/28 08:44:10;;;;;;;5.60;1.30;;;;;;;12.58;34.30;100650.70;108720;1235;64716;-56
2023/04/28 08:46:40;;;;;;;3.40;1.20;;;;;;;12.64;34.75;100647.26;109317;1243;60323;-56
2023/04/28 08:49:18;;;;;;;6.60;1.50;;;;;;;12.74;34.80;100645.17;108563;1235;60538;-55
2023/04/28 08:51:48;;;;;;;4.80;1.20;;;;;;;12.87;34.30;100647.45;110670;1234;65864;-56
2023/04/28 08:54:15;;;;;;;4.60;1.10;;;;;;;12.97;33.83;100642.83;110599;1234;62342;-57
2023/04/28 08:56:53;;;;;;;3.70;1.20;;;;;;;13.04;33.86;100641.38;108546;1235;65608;-56
2023/04/28 08:59:20;;;;;;;5.40;1.30;;;;;;;13.17;34.56;100641.15;107848;1232;60709;-56
2023/04/28 09:01:48;;;;;;;5.20;1.10;;;;;;;13.27;34.77;100639.88;108849;1232;60397;-56
2023/04/28 09:04:18;;;;;;;4.30;1.60;;;;;;;13.35;33.10;100639.41;109688;1234;65073;-57
2023/04/28 09:06:46;;;;;;;6.50;1.70;;;;;;;13.35;32.81;100637.33;108550;1235;62394;-56
2023/04/28 09:09:28;;;;;;;5.20;1.80;;;;;;;13.38;33.74;100646.93;109160;1233;65078;-56
2023/04/28 09:11:59;;;;;;;5.00;1.30;;;;;;;13.42;33.63;100642.88;110153;1234;60451;-56
2023/04/28 09:14:27;;;;;;;3.70;1.00;;;;;;;13.53;33.56;100644.58;108933;1229;59222;-57
2023/04/28 09:18:59;;;;;;;5.40;1.60;;;;;;;13.45;33.57;100647.71;105606;1294;600999;-96
2023/04/28 09:21:31;;;;;;;7.30;1.40;;;;;;;13.67;33.42;100647.16;108316;1272;57054;-95
2023/04/28 09:23:59;;;;;;;7.60;1.80;;;;;;;13.75;32.88;100645.77;108226;1267;57160;-94
2023/04/28 09:26:26;;;;;;;6.30;1.40;;;;;;;13.83;33.11;100647.55;108751;1266;65439;-96
2023/04/28 09:29:13;;;;;;;4.90;1.50;;;;;;;13.92;33.35;100637.55;108802;1266;63716;-94
2023/04/28 09:31:41;;;;;;;3.20;1.00;;;;;;;13.99;32.17;100633.23;107541;1267;214422;-96
2023/04/28 09:34:09;;;;;;;3.70;1.20;;;;;;;14.03;32.35;100630.21;108466;1261;58482;-94
2023/04/28 09:36:41;;;;;;;4.30;1.20;;;;;;;14.08;32.53;100631.33;108267;1257;57315;-94
2023/04/28 09:39:08;;;;;;;3.70;1.40;;;;;;;14.02;31.56;100633.00;108321;1259;65390;-93
2023/04/28 09:41:37;;;;;;;4.20;1.60;;;;;;;13.99;32.44;100637.10;108989;1258;62303;-95
2023/04/28 09:44:53;;;;;;;5.30;1.60;;;;;;;13.92;33.37;100637.53;102941;1289;600124;-48
2023/04/28 09:47:21;;;;;;;4.70;1.20;;;;;;;14.05;32.69;100632.99;104386;1269;59564;-49
2023/04/28 09:49:59;;;;;;;4.80;1.40;;;;;;;14.07;31.67;100637.39;104404;1268;59385;-49
2023/04/28 09:52:26;;;;;;;4.00;1.10;;;;;;;14.03;31.80;100632.55;106438;1270;64788;-47
2023/04/28 09:54:55;;;;;;;6.50;1.40;;;;;;;13.92;31.98;100634.52;104500;1267;63182;-48
2023/04/28 09:57:22;;;;;;;4.40;1.30;;;;;;;13.81;32.31;100635.55;104942;1267;336085;-47
2023/04/28 09:59:50;;;;;;;4.40;1.00;;;;;;;13.76;32.02;100631.77;104489;1270;59320;-49
2023/04/28 10:02:19;;;;;;;5.10;1.30;;;;;;;13.73;31.82;100631.81;104532;1272;59627;-48
2023/04/28 10:05:10;;;;;;;3.70;1.20;;;;;;;13.75;32.54;100640.98;104502;1265;65694;-48
2023/04/28 10:07:38;;;;;;;5.40;1.10;;;;;;;13.77;31.65;100639.25;104564;1265;64093;-48
2023/04/28 10:10:06;;;;;;;4.60;1.60;;;;;;;13.85;31.45;100643.15;104810;1267;66303;-48
2023/04/28 10:12:36;;;;;;;6.40;1.20;;;;;;;13.91;31.46;100640.60;104848;1271;59667;-47
2023/04/28 10:15:06;;;;;;;5.20;1.00;;;;;;;13.99;32.26;100636.20;104724;1270;59551;-47
2023/04/28 10:17:33;;;;;;;3.60;1.00;;;;;;;14.07;32.18;100640.27;107109;1268;66280;-47
2023/04/28 10:20:00;;;;;;;5.60;1.20;;;;;;;14.16;32.27;100642.63;104324;1273;64275;-47
2023/04/28 10:22:33;;;;;;;6.90;1.70;;;;;;;14.21;31.76;100647.31;105555;1269;66251;-47
2023/04/28 10:25:29;;;;;;;3.30;1.00;;;;;;;14.26;31.17;100648.61;104352;1270;59573;-47
2023/04/28 10:27:57;;;;;;;4.00;1.50;;;;;;;14.26;31.17;100642.04;104982;1258;59746;-48
2023/04/28 10:30:25;;;;;;;3.80;1.00;;;;;;;14.29;31.76;100640.70;106297;1257;66250;-47
2023/04/28 10:33:13;;;;;;;3.50;1.10;;;;;;;14.35;32.43;100644.23;104938;1263;62472;-47
2023/04/28 10:35:42;;;;;;;6.70;1.30;;;;;;;14.41;31.22;100643.16;105882;1260;65999;-47
2023/04/28 10:38:11;;;;;;;4.10;1.20;;;;;;;14.42;30.89;100645.04;104957;1261;59818;-49
2023/04/28 10:40:45;;;;;;;7.60;1.70;;;;;;;14.44;31.26;100644.70;107427;1260;59431;-47
2023/04/28 10:43:13;;;;;;;5.10;1.40;;;;;;;14.46;30.74;100641.63;104940;1260;65573;-47
2023/04/28 10:45:52;;;;;;;4.40;1.20;;;;;;;14.51;31.00;100634.99;105990;1259;62548;-48
2023/04/28 10:48:43;;;;;;;4.00;1.10;;;;;;;14.52;31.18;100642.15;105547;1259;66091;-48
2023/04/28 10:51:11;;;;;;;5.50;1.20;;;;;;;14.52;31.54;100642.15;104834;1264;59583;-47
2023/04/28 10:53:45;;;;;;;3.40;1.20;;;;;;;14.54;31.05;100638.48;104909;1262;60465;-49
2023/04/28 10:56:18;;;;;;;3.80;1.00;;;;;;;14.54;31.33;100644.80;105805;1259;66509;-49
2023/04/28 10:58:46;;;;;;;3.80;1.20;;;;;;;14.55;31.28;100643.60;105597;1263;64278;-49
2023/04/28 11:01:26;;;;;;;4.20;1.30;;;;;;;14.62;31.35;100640.52;105040;1264;66031;-48
2023/04/28 11:04:16;;;;;;;2.60;0.90;;;;;;;14.72;31.36;100630.80;108545;1259;59027;-47
2023/04/28 11:06:45;;;;;;;4.10;1.10;;;;;;;14.76;31.00;100633.41;104926;1260;59683;-47
2023/04/28 11:09:16;;;;;;;4.80;1.30;;;;;;;14.79;30.88;100636.69;105053;1263;65436;-47
2023/04/28 11:11:58;;;;;;;4.50;1.00;;;;;;;14.84;31.07;100636.59;104862;1260;62827;-47
2023/04/28 11:14:34;;;;;;;4.30;1.10;;;;;;;14.91;31.05;100636.79;104780;1264;65021;-47
2023/04/28 11:17:02;;;;;;;3.80;1.10;;;;;;;15.04;30.59;100633.84;104671;1264;59757;-48
2023/04/28 11:19:29;;;;;;;4.40;1.30;;;;;;;15.10;30.10;100631.45;104438;1263;59519;-47
2023/04/28 11:21:57;;;;;;;5.30;1.30;;;;;;;15.07;30.04;100622.41;104873;1264;66590;-47
2023/04/28 11:24:25;;;;;;;3.30;1.00;;;;;;;15.03;30.51;100624.65;105060;1260;64387;-47
2023/04/28 11:26:52;;;;;;;4.40;1.30;;;;;;;15.03;30.48;100618.30;104837;1260;66366;-47
2023/04/28 11:29:32;;;;;;;4.60;1.20;;;;;;;15.06;30.11;100620.35;105206;1256;59691;-48
2023/04/28 11:31:59;;;;;;;3.20;1.00;;;;;;;15.11;30.15;100618.63;105507;1256;59663;-47